createdAt,value
2024-01-15T00:01:49.684Z,64.23
2024-01-15T00:04:29.767Z,64.56
2024-01-15T00:06:56.608Z,63.90
2024-01-15T00:09:23.418Z,64.05
2024-01-15T00:11:53.660Z,63.97
2024-01-15T00:14:21.653Z,63.88
2024-01-15T00:16:50.664Z,64.04
2024-01-15T00:19:17.622Z,63.71
2024-01-15T00:21:44.982Z,63.60
2024-01-15T00:24:11.820Z,63.46
2024-01-15T00:26:38.479Z,63.27
2024-01-15T00:29:05.224Z,63.53
2024-01-15T00:31:31.993Z,63.50
2024-01-15T00:33:59.212Z,63.62
2024-01-15T00:36:26.373Z,63.25
2024-01-15T00:38:53.902Z,63.73
2024-01-15T00:41:20.731Z,63.58
2024-01-15T00:43:47.945Z,63.44
2024-01-15T00:46:14.710Z,63.42
2024-01-15T00:48:41.522Z,63.52
2024-01-15T00:51:08.495Z,63.19
2024-01-15T00:53:35.226Z,63.25
2024-01-15T00:56:01.989Z,63.06
2024-01-15T00:58:28.696Z,63.28
2024-01-15T01:00:55.526Z,63.32
2024-01-15T01:03:22.587Z,63.18
2024-01-15T01:05:52.350Z,63.24
2024-01-15T01:08:20.253Z,63.22
2024-01-15T01:10:46.899Z,62.96
2024-01-15T01:13:13.565Z,62.99
2024-01-15T01:15:40.259Z,63.10
2024-01-15T01:18:07.329Z,63.33
2024-01-15T01:20:34.297Z,63.17
2024-01-15T01:23:01.121Z,62.96
2024-01-15T01:25:28.402Z,63.43
2024-01-15T01:27:55.099Z,63.02
2024-01-15T01:30:21.999Z,62.98
2024-01-15T01:32:48.728Z,62.77
2024-01-15T01:35:17.771Z,62.88
2024-01-15T01:37:44.385Z,63.09
2024-01-15T01:40:11.534Z,63.45
2024-01-15T01:42:38.256Z,63.01
2024-01-15T01:45:05.496Z,62.63
2024-01-15T01:47:33.280Z,62.85
2024-01-15T01:50:00.230Z,62.69
2024-01-15T01:52:27.478Z,63.42
2024-01-15T01:54:55.060Z,63.13
2024-01-15T01:57:21.903Z,62.89
2024-01-15T01:59:48.875Z,63.25
2024-01-15T02:02:16.703Z,63.25
2024-01-15T02:04:43.719Z,63.10
2024-01-15T02:07:11.299Z,63.35
2024-01-15T02:09:38.204Z,63.28
2024-01-15T02:12:05.293Z,63.43
2024-01-15T02:14:32.010Z,63.36
2024-01-15T02:16:58.625Z,63.29
2024-01-15T02:19:25.832Z,63.72
2024-01-15T02:21:52.613Z,63.81
2024-01-15T02:24:19.447Z,64.18
2024-01-15T02:26:46.603Z,63.83
2024-01-15T02:29:13.821Z,64.51
2024-01-15T02:31:40.722Z,64.76
2024-01-15T02:34:07.673Z,64.89
2024-01-15T02:36:34.482Z,65.24
2024-01-15T02:39:01.206Z,65.80
2024-01-15T02:41:27.899Z,66.14
2024-01-15T02:43:54.525Z,65.92
2024-01-15T02:46:21.381Z,66.33
2024-01-15T02:48:48.131Z,66.50
2024-01-15T02:51:14.877Z,66.41
2024-01-15T02:53:41.568Z,66.94
2024-01-15T02:56:08.996Z,66.95
2024-01-15T02:58:35.623Z,67.08
2024-01-15T03:01:02.549Z,67.37
2024-01-15T03:03:29.780Z,67.21
2024-01-15T03:05:56.608Z,67.49
2024-01-15T03:08:24.174Z,67.81
2024-01-15T03:10:51.036Z,68.05
2024-01-15T03:13:17.706Z,68.38
2024-01-15T03:15:44.780Z,68.29
2024-01-15T03:18:11.895Z,68.25
2024-01-15T03:20:38.628Z,68.28
2024-01-15T03:23:05.262Z,68.30
2024-01-15T03:25:31.903Z,68.26
2024-01-15T03:27:58.521Z,68.47
2024-01-15T03:30:25.303Z,68.12
2024-01-15T03:32:52.105Z,68.49
2024-01-15T03:35:18.798Z,68.46
2024-01-15T03:37:45.847Z,68.55
2024-01-15T03:40:12.888Z,68.54
2024-01-15T03:42:39.670Z,68.51
2024-01-15T03:45:06.643Z,68.63
2024-01-15T03:47:33.421Z,68.93
2024-01-15T03:50:00.073Z,69.19
2024-01-15T03:52:26.693Z,69.06
2024-01-15T03:54:53.514Z,69.08
2024-01-15T03:57:20.221Z,69.14
2024-01-15T03:59:48.533Z,69.27
2024-01-15T04:02:15.709Z,69.27
2024-01-15T04:04:44.809Z,69.41
2024-01-15T04:07:11.704Z,69.53
2024-01-15T04:09:38.601Z,69.54
2024-01-15T04:12:05.761Z,69.55
2024-01-15T04:14:32.489Z,69.64
2024-01-15T04:16:59.160Z,69.60
2024-01-15T04:19:25.821Z,69.78
2024-01-15T04:21:52.521Z,69.71
2024-01-15T04:24:19.350Z,69.88
2024-01-15T04:26:46.660Z,69.84
2024-01-15T04:29:13.388Z,69.84
2024-01-15T04:31:40.336Z,70.21
2024-01-15T04:34:07.169Z,69.99
2024-01-15T04:36:40.238Z,70.26
2024-01-15T04:39:07.100Z,70.21
2024-01-15T04:41:33.765Z,70.37
2024-01-15T04:44:02.452Z,70.34
2024-01-15T04:46:29.165Z,70.32
2024-01-15T04:48:55.888Z,70.50
2024-01-15T04:51:22.712Z,70.47
2024-01-15T04:53:49.327Z,70.34
2024-01-15T04:56:15.993Z,70.31
2024-01-15T04:58:42.644Z,70.59
2024-01-15T05:01:10.204Z,70.68
2024-01-15T05:03:37.121Z,70.59
2024-01-15T05:06:04.576Z,70.34
2024-01-15T05:08:31.459Z,70.16
2024-01-15T05:10:58.163Z,70.38
2024-01-15T05:13:24.868Z,70.02
2024-01-15T05:15:51.674Z,70.04
2024-01-15T05:18:18.536Z,69.87
2024-01-15T05:20:45.548Z,69.97
2024-01-15T05:23:12.274Z,70.02
2024-01-15T05:25:38.903Z,69.82
2024-01-15T05:28:06.699Z,69.78
2024-01-15T05:30:33.480Z,69.62
2024-01-15T05:33:01.637Z,69.37
2024-01-15T05:35:28.437Z,69.22
2024-01-15T05:37:55.131Z,69.43
2024-01-15T05:40:21.805Z,68.87
2024-01-15T05:42:48.643Z,68.89
2024-01-15T05:45:15.607Z,68.59
2024-01-15T05:47:42.375Z,68.56
2024-01-15T05:50:09.918Z,68.41
2024-01-15T05:52:36.844Z,68.26
2024-01-15T05:55:03.834Z,68.31
2024-01-15T05:57:30.653Z,67.83
2024-01-15T05:59:57.368Z,67.91
2024-01-15T06:02:24.075Z,67.80
2024-01-15T06:04:50.902Z,67.57
2024-01-15T06:07:17.844Z,67.38
2024-01-15T06:09:44.506Z,67.31
2024-01-15T06:12:20.920Z,67.15
2024-01-15T06:14:47.578Z,67.03
2024-01-15T06:17:14.641Z,67.08
2024-01-15T06:19:41.427Z,66.95
2024-01-15T06:22:08.184Z,66.92
2024-01-15T06:24:35.037Z,67.09
2024-01-15T06:27:01.721Z,67.10
2024-01-15T06:29:29.291Z,66.74
2024-01-15T06:31:56.115Z,66.83
2024-01-15T06:34:22.954Z,66.97
2024-01-15T06:36:50.064Z,67.45
2024-01-15T06:39:16.767Z,67.12
2024-01-15T06:41:45.054Z,67.56
2024-01-15T06:44:12.460Z,67.36
2024-01-15T06:46:44.360Z,66.81
2024-01-15T06:49:11.354Z,67.07
2024-01-15T06:51:39.068Z,67.10
2024-01-15T06:54:06.132Z,67.09
2024-01-15T06:56:33.303Z,66.95
2024-01-15T06:59:00.074Z,66.65
2024-01-15T07:01:26.913Z,66.39
2024-01-15T07:03:53.784Z,66.71
2024-01-15T07:06:20.872Z,66.59
2024-01-15T07:08:47.560Z,66.77
2024-01-15T07:11:14.212Z,66.57
2024-01-15T07:13:40.881Z,66.45
2024-01-15T07:16:08.513Z,66.76
2024-01-15T07:18:35.321Z,66.63
2024-01-15T07:21:02.683Z,66.60
2024-01-15T07:23:31.359Z,66.78
2024-01-15T07:25:58.379Z,66.40
2024-01-15T07:28:25.273Z,66.70
2024-01-15T07:30:52.192Z,66.70
2024-01-15T07:33:19.073Z,66.46
2024-01-15T07:35:45.766Z,66.46
2024-01-15T07:38:13.052Z,66.43
2024-01-15T07:40:39.929Z,66.31
2024-01-15T07:43:06.659Z,66.47
2024-01-15T07:45:33.386Z,66.30
2024-01-15T07:48:00.132Z,66.46
2024-01-15T07:50:26.846Z,66.54
2024-01-15T07:52:54.391Z,66.64
2024-01-15T07:55:21.113Z,66.71
2024-01-15T07:57:56.297Z,66.87
2024-01-15T08:00:26.605Z,67.14
2024-01-15T08:02:54.262Z,67.08
2024-01-15T08:05:21.967Z,67.06
2024-01-15T08:07:49.297Z,66.84
2024-01-15T08:10:15.951Z,67.03
2024-01-15T08:12:42.611Z,66.49
2024-01-15T08:15:09.558Z,66.62
2024-01-15T08:17:36.250Z,66.72
2024-01-15T08:20:04.646Z,66.52
2024-01-15T08:22:32.459Z,66.87
2024-01-15T08:24:59.141Z,66.86
2024-01-15T08:27:25.809Z,67.29
2024-01-15T08:29:52.549Z,67.17
2024-01-15T08:32:19.312Z,66.58
2024-01-15T08:34:48.050Z,66.64
2024-01-15T08:37:14.848Z,66.09
2024-01-15T08:39:44.458Z,66.03
2024-01-15T08:42:16.033Z,66.15
2024-01-15T08:44:44.990Z,66.19
2024-01-15T08:47:11.634Z,66.05
2024-01-15T08:49:38.770Z,65.88
2024-01-15T08:52:05.642Z,65.37
2024-01-15T08:54:32.329Z,65.51
2024-01-15T08:57:01.677Z,65.45
2024-01-15T08:59:28.357Z,64.96
2024-01-15T09:01:57.977Z,64.85
2024-01-15T09:04:25.697Z,64.49
2024-01-15T09:06:52.713Z,64.47
2024-01-15T09:09:19.418Z,63.98
2024-01-15T09:11:46.744Z,64.11
2024-01-15T09:14:15.553Z,64.08
2024-01-15T09:16:43.939Z,63.85
2024-01-15T09:19:10.770Z,63.92
2024-01-15T09:21:39.779Z,63.41
2024-01-15T09:24:06.570Z,63.32
2024-01-15T09:26:33.369Z,63.57
2024-01-15T09:29:00.079Z,63.82
2024-01-15T09:31:26.799Z,63.98
2024-01-15T09:33:57.406Z,65.58
2024-01-15T09:36:24.333Z,67.35
2024-01-15T09:38:51.144Z,67.82
2024-01-15T09:41:17.839Z,68.00
2024-01-15T09:43:44.651Z,68.01
2024-01-15T09:46:12.354Z,67.49
2024-01-15T09:48:40.339Z,67.27
2024-01-15T09:51:09.186Z,67.16
2024-01-15T09:53:38.653Z,66.81
2024-01-15T09:56:06.681Z,66.98
2024-01-15T09:58:34.788Z,66.23
2024-01-15T10:01:08.167Z,66.17
2024-01-15T10:06:33.940Z,65.54
2024-01-15T10:09:01.621Z,65.78
2024-01-15T10:11:34.261Z,65.70
2024-01-15T10:14:02.121Z,65.50
2024-01-15T10:16:28.816Z,64.59
2024-01-15T10:19:01.972Z,64.68
2024-01-15T10:21:29.088Z,64.79
2024-01-15T10:23:55.872Z,65.24
2024-01-15T10:26:26.567Z,65.43
2024-01-15T10:28:53.777Z,65.30
2024-01-15T10:31:26.336Z,65.34
2024-01-15T10:33:54.870Z,65.11
2024-01-15T10:36:37.778Z,64.62
2024-01-15T10:39:07.215Z,65.11
2024-01-15T10:41:34.019Z,65.16
2024-01-15T10:44:01.065Z,65.79
2024-01-15T10:46:28.124Z,66.76
2024-01-15T10:48:55.313Z,68.06
2024-01-15T10:51:22.169Z,69.02
2024-01-15T10:53:49.273Z,69.75
2024-01-15T10:56:16.952Z,69.98
2024-01-15T10:58:47.262Z,70.39
2024-01-15T11:01:14.937Z,70.10
2024-01-15T11:03:42.136Z,70.31
2024-01-15T11:06:21.366Z,69.95
2024-01-15T11:08:51.873Z,69.56
2024-01-15T11:11:30.894Z,69.19
2024-01-15T11:13:58.056Z,69.09
2024-01-15T11:16:24.730Z,69.09
2024-01-15T11:19:00.631Z,69.29
2024-01-15T11:21:29.029Z,69.65
2024-01-15T11:24:00.689Z,69.08
2024-01-15T11:29:35.656Z,69.42
2024-01-15T11:32:09.796Z,69.71
2024-01-15T11:35:05.025Z,69.93
2024-01-15T11:37:52.365Z,70.00
2024-01-15T11:40:20.665Z,70.06
2024-01-15T11:42:49.146Z,69.97
2024-01-15T11:45:21.440Z,69.47
2024-01-15T11:48:16.249Z,68.53
2024-01-15T11:50:48.243Z,68.24
2024-01-15T11:53:19.267Z,67.85
2024-01-15T11:55:46.875Z,67.74
2024-01-15T11:58:14.309Z,67.51
2024-01-15T12:00:55.525Z,67.04
2024-01-15T12:03:23.930Z,67.16
2024-01-15T12:05:50.814Z,66.98
2024-01-15T12:11:52.252Z,66.24
2024-01-15T12:14:19.033Z,65.23
2024-01-15T12:16:45.718Z,65.01
2024-01-15T12:24:36.477Z,65.08
2024-01-15T12:27:03.511Z,64.72
2024-01-15T12:29:30.163Z,64.63
2024-01-15T12:31:59.819Z,64.84
2024-01-15T12:34:31.304Z,64.69
2024-01-15T12:37:02.078Z,64.84
2024-01-15T12:39:49.407Z,64.74
2024-01-15T12:42:25.569Z,64.87
2024-01-15T12:45:00.453Z,65.46
2024-01-15T12:47:27.474Z,66.44
2024-01-15T12:50:05.867Z,67.22
2024-01-15T12:52:42.135Z,67.90
2024-01-15T12:55:12.470Z,68.40
2024-01-15T12:57:39.386Z,68.68
2024-01-15T13:00:08.591Z,69.21
2024-01-15T13:02:35.963Z,69.65
2024-01-15T13:05:05.681Z,70.55
2024-01-15T13:07:32.558Z,70.57
2024-01-15T13:09:59.253Z,70.79
2024-01-15T13:12:28.761Z,71.42
2024-01-15T13:14:55.477Z,71.91
2024-01-15T13:17:22.926Z,72.12
2024-01-15T13:19:50.051Z,71.86
2024-01-15T13:22:17.175Z,71.94
2024-01-15T13:24:44.711Z,72.04
2024-01-15T13:27:13.035Z,72.42
2024-01-15T13:29:39.805Z,72.76
2024-01-15T13:32:06.502Z,72.88
2024-01-15T13:34:33.257Z,73.52
2024-01-15T13:37:00.027Z,73.47
2024-01-15T13:39:26.673Z,73.71
2024-01-15T13:41:53.351Z,74.00
2024-01-15T13:44:20.295Z,74.19
2024-01-15T13:46:46.974Z,74.18
2024-01-15T13:49:14.051Z,74.52
2024-01-15T13:51:41.534Z,74.66
2024-01-15T13:54:08.762Z,74.53
2024-01-15T13:56:36.791Z,74.25
2024-01-15T13:59:05.358Z,74.46
2024-01-15T14:01:32.592Z,74.24
2024-01-15T14:03:59.761Z,74.25
2024-01-15T14:06:26.560Z,73.75
2024-01-15T14:08:53.452Z,73.73
2024-01-15T14:11:20.189Z,73.73
2024-01-15T14:13:48.090Z,73.96
2024-01-15T14:16:15.325Z,73.39
2024-01-15T14:18:42.234Z,73.62
2024-01-15T14:21:16.907Z,73.24
2024-01-15T14:23:43.576Z,73.51
2024-01-15T14:26:10.295Z,73.41
2024-01-15T14:28:39.944Z,73.20
2024-01-15T14:31:06.673Z,73.12
2024-01-15T14:33:34.771Z,72.97
2024-01-15T14:36:02.846Z,73.10
2024-01-15T14:38:34.510Z,72.94
2024-01-15T14:41:02.591Z,73.21
2024-01-15T14:43:29.421Z,72.92
2024-01-15T14:45:58.442Z,72.89
2024-01-15T14:48:25.343Z,72.52
2024-01-15T14:50:52.207Z,72.46
2024-01-15T14:53:18.893Z,72.41
2024-01-15T14:55:45.551Z,72.32
2024-01-15T14:58:12.242Z,72.15
2024-01-15T15:00:39.015Z,72.19
2024-01-15T15:03:05.790Z,71.93
2024-01-15T15:05:35.795Z,71.83
2024-01-15T15:08:04.239Z,71.62
2024-01-15T15:10:31.107Z,71.31
2024-01-15T15:13:09.955Z,71.27
2024-01-15T15:15:48.438Z,71.33
2024-01-15T15:18:33.395Z,71.13
2024-01-15T15:21:03.041Z,70.75
2024-01-15T15:23:32.923Z,70.80
2024-01-15T15:26:47.432Z,70.94
2024-01-15T15:29:30.714Z,70.68
2024-01-15T15:32:00.060Z,70.73
2024-01-15T15:34:27.300Z,70.70
2024-01-15T15:36:54.289Z,70.36
2024-01-15T15:39:32.383Z,70.53
2024-01-15T15:42:01.781Z,70.54
2024-01-15T15:44:31.134Z,70.25
2024-01-15T15:46:58.144Z,69.92
2024-01-15T15:49:25.650Z,69.71
2024-01-15T15:51:52.762Z,69.61
2024-01-15T15:54:24.864Z,69.32
2024-01-15T15:56:54.884Z,69.64
2024-01-15T15:59:22.519Z,69.79
2024-01-15T16:01:52.098Z,69.88
2024-01-15T16:04:19.499Z,69.80
2024-01-15T16:06:49.153Z,69.79
2024-01-15T16:09:18.761Z,69.30
2024-01-15T16:11:47.489Z,69.49
2024-01-15T16:14:14.279Z,69.38
2024-01-15T16:23:13.065Z,69.18
2024-01-15T16:23:26.517Z,69.16
2024-01-15T16:23:42.062Z,69.51
2024-01-15T16:25:18.343Z,69.41
2024-01-15T16:27:45.637Z,69.14
2024-01-15T16:30:20.997Z,69.38
2024-01-15T16:32:56.118Z,68.96
2024-01-15T16:35:23.394Z,69.05
2024-01-15T16:37:52.965Z,69.25
2024-01-15T16:40:21.792Z,69.33
2024-01-15T16:42:49.497Z,68.86
2024-01-15T16:45:18.752Z,69.17
2024-01-15T16:47:45.571Z,69.08
2024-01-15T16:50:15.498Z,69.21
2024-01-15T16:52:42.158Z,69.33
2024-01-15T16:55:09.112Z,69.08
2024-01-15T16:57:44.768Z,69.23
2024-01-15T17:00:14.476Z,68.99
2024-01-15T17:02:41.183Z,69.28
2024-01-15T17:05:08.547Z,69.38
2024-01-15T17:07:43.016Z,69.13
2024-01-15T17:10:09.899Z,70.14
2024-01-15T17:12:36.605Z,70.63
2024-01-15T17:15:03.511Z,70.44
2024-01-15T17:17:30.251Z,70.70
2024-01-15T17:19:57.009Z,70.81
2024-01-15T17:22:23.977Z,70.90
2024-01-15T17:24:50.893Z,70.41
2024-01-15T17:27:17.642Z,70.54
2024-01-15T17:29:44.504Z,70.38
2024-01-15T17:32:11.284Z,70.14
2024-01-15T17:34:38.091Z,70.64
2024-01-15T17:37:04.742Z,70.84
2024-01-15T17:39:32.315Z,70.81
2024-01-15T17:41:59.381Z,70.46
2024-01-15T17:44:26.306Z,70.68
2024-01-15T17:46:53.021Z,70.85
2024-01-15T17:49:19.754Z,70.66
2024-01-15T17:51:48.208Z,69.94
2024-01-15T17:54:14.959Z,70.41
2024-01-15T17:56:43.649Z,69.87
2024-01-15T17:59:10.406Z,69.96
2024-01-15T18:01:37.551Z,69.45
2024-01-15T18:04:04.913Z,69.31
2024-01-15T18:06:34.402Z,69.21
2024-01-15T18:09:01.141Z,68.73
2024-01-15T18:11:28.843Z,68.81
2024-01-15T18:13:55.675Z,68.80
2024-01-15T18:16:23.960Z,69.07
2024-01-15T18:18:53.954Z,69.33
2024-01-15T18:21:22.778Z,68.63
2024-01-15T18:23:50.110Z,68.94
2024-01-15T18:26:16.879Z,69.05
2024-01-15T18:28:45.269Z,69.36
2024-01-15T18:31:13.089Z,69.42
2024-01-15T18:33:40.267Z,69.32
2024-01-15T18:36:10.413Z,69.62
2024-01-15T18:38:40.757Z,69.68
2024-01-15T18:41:07.650Z,69.65
2024-01-15T18:43:34.565Z,69.82
2024-01-15T18:46:09.006Z,69.54
2024-01-15T18:48:36.366Z,69.67
2024-01-15T18:51:03.266Z,69.64
2024-01-15T18:53:29.954Z,70.03
2024-01-15T18:55:58.869Z,70.21
2024-01-15T18:58:27.479Z,69.84
2024-01-15T19:00:54.310Z,69.74
2024-01-15T19:03:21.101Z,69.74
2024-01-15T19:05:48.053Z,70.20
2024-01-15T19:08:15.129Z,70.68
2024-01-15T19:10:42.019Z,70.49
2024-01-15T19:13:11.854Z,70.23
2024-01-15T19:15:38.697Z,69.99
2024-01-15T19:18:16.853Z,69.86
2024-01-15T19:20:44.179Z,69.81
2024-01-15T19:23:11.161Z,69.31
2024-01-15T19:25:37.828Z,69.05
2024-01-15T19:28:04.730Z,68.84
2024-01-15T19:30:31.442Z,68.11
2024-01-15T19:32:58.226Z,68.26
2024-01-15T19:35:30.622Z,68.32
2024-01-15T19:37:57.605Z,68.13
2024-01-15T19:40:24.428Z,67.93
2024-01-15T19:42:51.623Z,67.65
2024-01-15T19:45:18.405Z,67.70
2024-01-15T19:47:45.305Z,67.75
2024-01-15T19:50:12.159Z,67.67
2024-01-15T19:52:38.979Z,67.92
2024-01-15T19:55:05.955Z,67.67
2024-01-15T19:57:32.632Z,67.54
2024-01-15T19:59:59.278Z,68.00
2024-01-15T20:02:26.628Z,67.99
2024-01-15T20:04:53.349Z,67.93
2024-01-15T20:07:20.130Z,67.58
2024-01-15T20:09:46.826Z,68.17
2024-01-15T20:12:13.508Z,67.83
2024-01-15T20:14:40.245Z,67.34
2024-01-15T20:17:07.589Z,67.63
2024-01-15T20:19:34.514Z,67.51
2024-01-15T20:22:02.041Z,67.10
2024-01-15T20:24:28.825Z,67.31
2024-01-15T20:26:56.457Z,67.10
2024-01-15T20:29:23.198Z,66.83
2024-01-15T20:31:50.099Z,66.48
2024-01-15T20:34:16.932Z,66.55
2024-01-15T20:36:43.946Z,66.13
2024-01-15T20:39:10.773Z,65.47
2024-01-15T20:41:37.621Z,65.22
2024-01-15T20:44:05.001Z,64.87
2024-01-15T20:46:34.692Z,63.58
2024-01-15T20:49:02.761Z,63.33
2024-01-15T20:51:29.547Z,63.51
2024-01-15T20:53:57.329Z,62.92
2024-01-15T20:56:24.026Z,63.22
2024-01-15T20:58:50.846Z,63.52
2024-01-15T21:01:24.908Z,63.66
2024-01-15T21:03:51.651Z,63.67
2024-01-15T21:06:18.574Z,62.93
2024-01-15T21:08:46.667Z,63.16
2024-01-15T21:11:15.222Z,62.86
2024-01-15T21:13:42.007Z,62.64
2024-01-15T21:16:08.682Z,62.00
2024-01-15T21:18:35.489Z,62.26
2024-01-15T21:21:02.474Z,62.33
2024-01-15T21:23:29.667Z,62.05
2024-01-15T21:25:58.555Z,62.38
2024-01-15T21:28:25.653Z,62.29
2024-01-15T21:30:53.827Z,62.02
2024-01-15T21:33:20.643Z,61.72
2024-01-15T21:35:47.467Z,62.01
2024-01-15T21:38:16.914Z,61.83
2024-01-15T21:40:43.846Z,62.01
2024-01-15T21:43:11.278Z,61.25
2024-01-15T21:45:38.979Z,61.47
2024-01-15T21:48:05.913Z,61.17
2024-01-15T21:50:38.526Z,60.67
2024-01-15T21:53:07.294Z,60.45
2024-01-15T21:55:33.944Z,60.55
2024-01-15T21:58:01.133Z,60.85
2024-01-15T22:00:28.576Z,60.74
2024-01-15T22:02:55.416Z,60.53
2024-01-15T22:05:24.632Z,60.40
2024-01-15T22:07:51.352Z,60.40
2024-01-15T22:10:18.081Z,59.97
2024-01-15T22:12:44.925Z,60.16
2024-01-15T22:15:14.245Z,60.37
2024-01-15T22:17:41.259Z,60.18
2024-01-15T22:20:08.623Z,60.38
2024-01-15T22:22:35.955Z,59.84
2024-01-15T22:25:03.749Z,59.58
2024-01-15T22:27:30.417Z,59.19
2024-01-15T22:29:57.811Z,59.49
2024-01-15T22:32:24.650Z,59.16
2024-01-15T22:34:51.637Z,59.21
2024-01-15T22:37:18.341Z,59.35
2024-01-15T22:39:45.059Z,58.99
2024-01-15T22:42:11.687Z,59.14
2024-01-15T22:44:38.530Z,58.68
2024-01-15T22:47:05.644Z,58.41
2024-01-15T22:49:32.326Z,58.10
2024-01-15T22:51:59.036Z,57.53
2024-01-15T22:54:25.639Z,57.81
2024-01-15T22:56:52.392Z,57.72
2024-01-15T22:59:22.952Z,58.44
2024-01-15T23:01:50.144Z,58.55
2024-01-15T23:04:17.078Z,58.53
2024-01-15T23:06:43.818Z,58.62
2024-01-15T23:09:10.731Z,58.48
2024-01-15T23:11:37.696Z,57.93
2024-01-15T23:14:05.173Z,58.15
2024-01-15T23:16:32.053Z,58.40
2024-01-15T23:18:58.956Z,57.21
2024-01-15T23:21:27.554Z,57.61
2024-01-15T23:23:54.556Z,57.95
2024-01-15T23:26:21.670Z,57.57
2024-01-15T23:28:49.406Z,57.86
2024-01-15T23:31:16.063Z,57.84
2024-01-15T23:33:43.245Z,57.92
2024-01-15T23:36:10.110Z,57.88
2024-01-15T23:38:42.779Z,57.83
2024-01-15T23:41:10.979Z,57.57
2024-01-15T23:43:39.424Z,57.52
2024-01-15T23:46:14.068Z,57.30
2024-01-15T23:48:41.855Z,57.74
2024-01-15T23:51:10.130Z,57.40
2024-01-15T23:53:36.802Z,57.34
2024-01-15T23:56:04.580Z,57.93
2024-01-15T23:58:31.449Z,56.87
